sensor_id;sensor_type;location;lat;lon;timestamp;temperature;humidity
5588;DHT22;2816;49.778;9.986;2023-12-14T00:01:51;4.80;99.90
5588;DHT22;2816;49.778;9.986;2023-12-14T00:04:20;4.80;99.90
5588;DHT22;2816;49.778;9.986;2023-12-14T00:06:47;4.80;99.90
5588;DHT22;2816;49.778;9.986;2023-12-14T00:09:13;4.80;99.90
5588;DHT22;2816;49.778;9.986;2023-12-14T00:11:41;4.90;99.90
5588;DHT22;2816;49.778;9.986;2023-12-14T00:14:08;4.80;99.90
5588;DHT22;2816;49.778;9.986;2023-12-14T00:16:34;4.90;99.90
5588;DHT22;2816;49.778;9.986;2023-12-14T00:19:03;4.90;99.90
5588;DHT22;2816;49.778;9.986;2023-12-14T00:21:31;4.90;99.90
5588;DHT22;2816;49.778;9.986;2023-12-14T00:23:58;4.90;99.90
5588;DHT22;2816;49.778;9.986;2023-12-14T00:26:24;4.90;99.90
5588;DHT22;2816;49.778;9.986;2023-12-14T00:28:51;4.90;99.90
5588;DHT22;2816;49.778;9.986;2023-12-14T00:31:18;4.80;99.90
5588;DHT22;2816;49.778;9.986;2023-12-14T00:33:44;4.80;99.90
5588;DHT22;2816;49.778;9.986;2023-12-14T00:36:18;4.80;99.90
5588;DHT22;2816;49.778;9.986;2023-12-14T00:38:46;4.80;99.90
5588;DHT22;2816;49.778;9.986;2023-12-14T00:41:13;4.80;99.90
5588;DHT22;2816;49.778;9.986;2023-12-14T00:43:40;4.70;99.90
5588;DHT22;2816;49.778;9.986;2023-12-14T00:46:07;4.60;99.90
5588;DHT22;2816;49.778;9.986;2023-12-14T00:48:34;4.50;99.90
5588;DHT22;2816;49.778;9.986;2023-12-14T00:51:01;4.40;99.90
5588;DHT22;2816;49.778;9.986;2023-12-14T00:53:28;4.40;99.90
5588;DHT22;2816;49.778;9.986;2023-12-14T00:55:56;4.40;99.90
5588;DHT22;2816;49.778;9.986;2023-12-14T00:58:23;4.30;99.90
5588;DHT22;2816;49.778;9.986;2023-12-14T01:00:50;4.30;99.90
5588;DHT22;2816;49.778;9.986;2023-12-14T01:03:19;4.20;99.90
5588;DHT22;2816;49.778;9.986;2023-12-14T01:05:46;4.20;99.90
5588;DHT22;2816;49.778;9.986;2023-12-14T01:08:13;4.20;99.90
5588;DHT22;2816;49.778;9.986;2023-12-14T01:10:41;4.10;99.90
5588;DHT22;2816;49.778;9.986;2023-12-14T01:13:09;4.10;99.90
5588;DHT22;2816;49.778;9.986;2023-12-14T01:15:37;4.10;99.90
5588;DHT22;2816;49.778;9.986;2023-12-14T01:18:04;4.00;99.90
5588;DHT22;2816;49.778;9.986;2023-12-14T01:20:31;4.00;99.90
5588;DHT22;2816;49.778;9.986;2023-12-14T01:22:57;4.00;99.90
5588;DHT22;2816;49.778;9.986;2023-12-14T01:25:24;3.90;99.90
5588;DHT22;2816;49.778;9.986;2023-12-14T01:27:51;3.90;99.90
5588;DHT22;2816;49.778;9.986;2023-12-14T01:30:20;3.90;99.90
5588;DHT22;2816;49.778;9.986;2023-12-14T01:32:46;3.90;99.90
5588;DHT22;2816;49.778;9.986;2023-12-14T01:35:13;3.80;99.90
5588;DHT22;2816;49.778;9.986;2023-12-14T01:37:40;3.80;99.90
5588;DHT22;2816;49.778;9.986;2023-12-14T01:40:08;3.80;99.90
5588;DHT22;2816;49.778;9.986;2023-12-14T01:42:35;3.80;99.90
5588;DHT22;2816;49.778;9.986;2023-12-14T01:45:02;3.80;99.90
5588;DHT22;2816;49.778;9.986;2023-12-14T01:47:30;3.70;99.90
5588;DHT22;2816;49.778;9.986;2023-12-14T01:49:57;3.70;99.90
5588;DHT22;2816;49.778;9.986;2023-12-14T01:52:24;3.70;99.90
5588;DHT22;2816;49.778;9.986;2023-12-14T01:54:51;3.60;99.90
5588;DHT22;2816;49.778;9.986;2023-12-14T01:57:18;3.60;99.90
5588;DHT22;2816;49.778;9.986;2023-12-14T01:59:45;3.60;99.90
5588;DHT22;2816;49.778;9.986;2023-12-14T02:02:11;3.50;99.90
5588;DHT22;2816;49.778;9.986;2023-12-14T02:04:40;3.50;99.90
5588;DHT22;2816;49.778;9.986;2023-12-14T02:07:07;3.50;99.90
5588;DHT22;2816;49.778;9.986;2023-12-14T02:09:33;3.50;99.90
5588;DHT22;2816;49.778;9.986;2023-12-14T02:12:00;3.50;99.90
5588;DHT22;2816;49.778;9.986;2023-12-14T02:14:27;3.50;99.90
5588;DHT22;2816;49.778;9.986;2023-12-14T02:16:54;3.50;99.90
5588;DHT22;2816;49.778;9.986;2023-12-14T02:19:21;3.50;99.90
5588;DHT22;2816;49.778;9.986;2023-12-14T02:21:50;3.50;99.90
5588;DHT22;2816;49.778;9.986;2023-12-14T02:24:18;3.50;99.90
5588;DHT22;2816;49.778;9.986;2023-12-14T02:26:45;3.50;99.90
5588;DHT22;2816;49.778;9.986;2023-12-14T02:29:13;3.50;99.90
5588;DHT22;2816;49.778;9.986;2023-12-14T02:31:40;3.50;99.90
5588;DHT22;2816;49.778;9.986;2023-12-14T02:34:06;3.50;99.90
5588;DHT22;2816;49.778;9.986;2023-12-14T02:36:33;3.50;99.90
5588;DHT22;2816;49.778;9.986;2023-12-14T02:39:00;3.50;99.90
5588;DHT22;2816;49.778;9.986;2023-12-14T02:41:28;3.60;99.90
5588;DHT22;2816;49.778;9.986;2023-12-14T02:43:55;3.60;99.90
5588;DHT22;2816;49.778;9.986;2023-12-14T02:46:22;3.60;99.90
5588;DHT22;2816;49.778;9.986;2023-12-14T02:48:49;3.60;99.90
5588;DHT22;2816;49.778;9.986;2023-12-14T02:51:16;3.60;99.90
5588;DHT22;2816;49.778;9.986;2023-12-14T02:53:43;3.60;99.90
5588;DHT22;2816;49.778;9.986;2023-12-14T02:56:10;3.70;99.90
5588;DHT22;2816;49.778;9.986;2023-12-14T02:58:39;3.70;99.90
5588;DHT22;2816;49.778;9.986;2023-12-14T03:01:05;3.70;99.90
5588;DHT22;2816;49.778;9.986;2023-12-14T03:03:32;3.70;99.90
5588;DHT22;2816;49.778;9.986;2023-12-14T03:05:59;3.70;99.90
5588;DHT22;2816;49.778;9.986;2023-12-14T03:08:26;3.80;99.90
5588;DHT22;2816;49.778;9.986;2023-12-14T03:10:53;3.80;99.90
5588;DHT22;2816;49.778;9.986;2023-12-14T03:13:20;3.90;99.90
5588;DHT22;2816;49.778;9.986;2023-12-14T03:15:48;3.90;99.90
5588;DHT22;2816;49.778;9.986;2023-12-14T03:18:15;3.90;99.90
5588;DHT22;2816;49.778;9.986;2023-12-14T03:20:42;3.90;99.90
5588;DHT22;2816;49.778;9.986;2023-12-14T03:23:09;3.90;99.90
5588;DHT22;2816;49.778;9.986;2023-12-14T03:25:36;3.90;99.90
5588;DHT22;2816;49.778;9.986;2023-12-14T03:28:03;3.90;99.90
5588;DHT22;2816;49.778;9.986;2023-12-14T03:30:30;3.90;99.90
5588;DHT22;2816;49.778;9.986;2023-12-14T03:32:58;4.00;99.90
5588;DHT22;2816;49.778;9.986;2023-12-14T03:35:25;4.00;99.90
5588;DHT22;2816;49.778;9.986;2023-12-14T03:37:52;4.00;99.90
5588;DHT22;2816;49.778;9.986;2023-12-14T03:40:19;4.10;99.90
5588;DHT22;2816;49.778;9.986;2023-12-14T03:42:45;4.10;99.90
5588;DHT22;2816;49.778;9.986;2023-12-14T03:45:13;4.10;99.90
5588;DHT22;2816;49.778;9.986;2023-12-14T03:47:39;4.00;99.90
5588;DHT22;2816;49.778;9.986;2023-12-14T03:50:11;4.10;99.90
5588;DHT22;2816;49.778;9.986;2023-12-14T03:52:38;4.10;99.90
5588;DHT22;2816;49.778;9.986;2023-12-14T03:55:06;4.10;99.90
5588;DHT22;2816;49.778;9.986;2023-12-14T03:57:33;4.10;99.90
5588;DHT22;2816;49.778;9.986;2023-12-14T04:00:00;4.20;99.90
5588;DHT22;2816;49.778;9.986;2023-12-14T04:02:27;4.20;99.90
5588;DHT22;2816;49.778;9.986;2023-12-14T04:04:54;4.20;99.90
5588;DHT22;2816;49.778;9.986;2023-12-14T04:07:22;4.20;99.90
5588;DHT22;2816;49.778;9.986;2023-12-14T04:09:49;4.20;99.90
5588;DHT22;2816;49.778;9.986;2023-12-14T04:12:16;4.20;99.90
5588;DHT22;2816;49.778;9.986;2023-12-14T04:14:42;4.20;99.90
5588;DHT22;2816;49.778;9.986;2023-12-14T04:17:10;4.20;99.90
5588;DHT22;2816;49.778;9.986;2023-12-14T04:19:38;4.20;99.90
5588;DHT22;2816;49.778;9.986;2023-12-14T04:22:05;4.20;99.90
5588;DHT22;2816;49.778;9.986;2023-12-14T04:24:34;4.20;99.90
5588;DHT22;2816;49.778;9.986;2023-12-14T04:27:00;4.20;99.90
5588;DHT22;2816;49.778;9.986;2023-12-14T04:29:27;4.20;99.90
5588;DHT22;2816;49.778;9.986;2023-12-14T04:31:54;4.20;99.90
5588;DHT22;2816;49.778;9.986;2023-12-14T04:34:21;4.20;99.90
5588;DHT22;2816;49.778;9.986;2023-12-14T04:36:48;4.20;99.90
5588;DHT22;2816;49.778;9.986;2023-12-14T04:39:15;4.30;99.90
5588;DHT22;2816;49.778;9.986;2023-12-14T04:41:44;4.30;99.90
5588;DHT22;2816;49.778;9.986;2023-12-14T04:44:11;4.30;99.90
5588;DHT22;2816;49.778;9.986;2023-12-14T04:46:38;4.30;99.90
5588;DHT22;2816;49.778;9.986;2023-12-14T04:49:05;4.30;99.90
5588;DHT22;2816;49.778;9.986;2023-12-14T04:51:32;4.30;99.90
5588;DHT22;2816;49.778;9.986;2023-12-14T04:53:59;4.30;99.90
5588;DHT22;2816;49.778;9.986;2023-12-14T04:56:26;4.30;99.90
5588;DHT22;2816;49.778;9.986;2023-12-14T04:58:54;4.30;99.90
5588;DHT22;2816;49.778;9.986;2023-12-14T05:01:21;4.30;99.90
5588;DHT22;2816;49.778;9.986;2023-12-14T05:03:48;4.30;99.90
5588;DHT22;2816;49.778;9.986;2023-12-14T05:06:14;4.30;99.90
5588;DHT22;2816;49.778;9.986;2023-12-14T05:08:41;4.30;99.90
5588;DHT22;2816;49.778;9.986;2023-12-14T05:11:08;4.30;99.90
5588;DHT22;2816;49.778;9.986;2023-12-14T05:13:35;4.30;99.90
5588;DHT22;2816;49.778;9.986;2023-12-14T05:16:04;4.40;99.90
5588;DHT22;2816;49.778;9.986;2023-12-14T05:18:31;4.30;99.90
5588;DHT22;2816;49.778;9.986;2023-12-14T05:20:58;4.40;99.90
5588;DHT22;2816;49.778;9.986;2023-12-14T05:23:26;4.40;99.90
5588;DHT22;2816;49.778;9.986;2023-12-14T05:25:52;4.40;99.90
5588;DHT22;2816;49.778;9.986;2023-12-14T05:28:19;4.30;99.90
5588;DHT22;2816;49.778;9.986;2023-12-14T05:30:46;4.30;99.90
5588;DHT22;2816;49.778;9.986;2023-12-14T05:33:14;4.30;99.90
5588;DHT22;2816;49.778;9.986;2023-12-14T05:35:41;4.30;99.90
5588;DHT22;2816;49.778;9.986;2023-12-14T05:38:08;4.30;99.90
5588;DHT22;2816;49.778;9.986;2023-12-14T05:40:35;4.30;99.90
5588;DHT22;2816;49.778;9.986;2023-12-14T05:43:02;4.30;99.90
5588;DHT22;2816;49.778;9.986;2023-12-14T05:45:29;4.30;99.90
5588;DHT22;2816;49.778;9.986;2023-12-14T05:47:56;4.30;99.90
5588;DHT22;2816;49.778;9.986;2023-12-14T05:50:24;4.30;99.90
5588;DHT22;2816;49.778;9.986;2023-12-14T05:52:51;4.30;99.90
5588;DHT22;2816;49.778;9.986;2023-12-14T05:55:18;4.30;99.90
5588;DHT22;2816;49.778;9.986;2023-12-14T05:57:47;4.30;99.90
5588;DHT22;2816;49.778;9.986;2023-12-14T06:00:15;4.30;99.90
5588;DHT22;2816;49.778;9.986;2023-12-14T06:02:42;4.30;99.90
5588;DHT22;2816;49.778;9.986;2023-12-14T06:05:09;4.30;99.90
5588;DHT22;2816;49.778;9.986;2023-12-14T06:07:37;4.40;99.90
5588;DHT22;2816;49.778;9.986;2023-12-14T06:10:05;4.40;99.90
5588;DHT22;2816;49.778;9.986;2023-12-14T06:12:32;4.40;99.90
5588;DHT22;2816;49.778;9.986;2023-12-14T06:14:59;4.40;99.90
5588;DHT22;2816;49.778;9.986;2023-12-14T06:17:26;4.40;99.90
5588;DHT22;2816;49.778;9.986;2023-12-14T06:19:53;4.40;99.90
5588;DHT22;2816;49.778;9.986;2023-12-14T06:22:20;4.40;99.90
5588;DHT22;2816;49.778;9.986;2023-12-14T06:24:48;4.40;99.90
5588;DHT22;2816;49.778;9.986;2023-12-14T06:27:15;4.40;99.90
5588;DHT22;2816;49.778;9.986;2023-12-14T06:29:42;4.50;99.90
5588;DHT22;2816;49.778;9.986;2023-12-14T06:32:09;4.40;99.90
5588;DHT22;2816;49.778;9.986;2023-12-14T06:34:36;4.40;99.90
5588;DHT22;2816;49.778;9.986;2023-12-14T06:37:03;4.50;99.90
5588;DHT22;2816;49.778;9.986;2023-12-14T06:39:31;4.50;99.90
5588;DHT22;2816;49.778;9.986;2023-12-14T06:41:59;4.50;99.90
5588;DHT22;2816;49.778;9.986;2023-12-14T06:44:26;4.50;99.90
5588;DHT22;2816;49.778;9.986;2023-12-14T06:46:55;4.50;99.90
5588;DHT22;2816;49.778;9.986;2023-12-14T06:49:24;4.50;99.90
5588;DHT22;2816;49.778;9.986;2023-12-14T06:51:51;4.50;99.90
5588;DHT22;2816;49.778;9.986;2023-12-14T06:54:18;4.50;99.90
5588;DHT22;2816;49.778;9.986;2023-12-14T06:56:45;4.50;99.90
5588;DHT22;2816;49.778;9.986;2023-12-14T06:59:13;4.50;99.90
5588;DHT22;2816;49.778;9.986;2023-12-14T07:01:41;4.50;99.90
5588;DHT22;2816;49.778;9.986;2023-12-14T07:04:08;4.50;99.90
5588;DHT22;2816;49.778;9.986;2023-12-14T07:06:35;4.60;99.90
5588;DHT22;2816;49.778;9.986;2023-12-14T07:09:02;4.60;99.90
5588;DHT22;2816;49.778;9.986;2023-12-14T07:11:29;4.60;99.90
5588;DHT22;2816;49.778;9.986;2023-12-14T07:13:56;4.60;99.90
5588;DHT22;2816;49.778;9.986;2023-12-14T07:16:24;4.60;99.90
5588;DHT22;2816;49.778;9.986;2023-12-14T07:18:51;4.60;99.90
5588;DHT22;2816;49.778;9.986;2023-12-14T07:21:18;4.60;99.90
5588;DHT22;2816;49.778;9.986;2023-12-14T07:23:45;4.60;99.90
5588;DHT22;2816;49.778;9.986;2023-12-14T07:26:13;4.60;99.90
5588;DHT22;2816;49.778;9.986;2023-12-14T07:28:39;4.60;99.90
5588;DHT22;2816;49.778;9.986;2023-12-14T07:31:06;4.60;99.90
5588;DHT22;2816;49.778;9.986;2023-12-14T07:33:34;4.40;99.90
5588;DHT22;2816;49.778;9.986;2023-12-14T07:36:02;4.30;99.90
5588;DHT22;2816;49.778;9.986;2023-12-14T07:38:30;4.40;99.90
5588;DHT22;2816;49.778;9.986;2023-12-14T07:40:57;4.40;99.90
5588;DHT22;2816;49.778;9.986;2023-12-14T07:43:24;4.40;99.90
5588;DHT22;2816;49.778;9.986;2023-12-14T07:45:51;4.40;99.90
5588;DHT22;2816;49.778;9.986;2023-12-14T07:48:18;4.40;99.90
5588;DHT22;2816;49.778;9.986;2023-12-14T07:50:46;4.30;99.90
5588;DHT22;2816;49.778;9.986;2023-12-14T07:53:14;4.40;99.90
5588;DHT22;2816;49.778;9.986;2023-12-14T07:55:41;4.40;99.90
5588;DHT22;2816;49.778;9.986;2023-12-14T07:58:07;4.50;99.90
5588;DHT22;2816;49.778;9.986;2023-12-14T08:00:34;4.50;99.90
5588;DHT22;2816;49.778;9.986;2023-12-14T08:03:01;4.60;99.90
5588;DHT22;2816;49.778;9.986;2023-12-14T08:05:28;4.60;99.90
5588;DHT22;2816;49.778;9.986;2023-12-14T08:07:56;4.60;99.90
5588;DHT22;2816;49.778;9.986;2023-12-14T08:10:23;4.70;99.90
5588;DHT22;2816;49.778;9.986;2023-12-14T08:12:50;4.70;99.90
5588;DHT22;2816;49.778;9.986;2023-12-14T08:15:18;4.80;99.90
5588;DHT22;2816;49.778;9.986;2023-12-14T08:17:44;4.80;99.90
5588;DHT22;2816;49.778;9.986;2023-12-14T08:20:11;4.80;99.90
5588;DHT22;2816;49.778;9.986;2023-12-14T08:22:39;4.80;99.90
5588;DHT22;2816;49.778;9.986;2023-12-14T08:25:13;4.90;99.90
5588;DHT22;2816;49.778;9.986;2023-12-14T08:27:41;4.90;99.90
5588;DHT22;2816;49.778;9.986;2023-12-14T08:30:08;4.90;99.90
5588;DHT22;2816;49.778;9.986;2023-12-14T08:32:36;5.00;99.90
5588;DHT22;2816;49.778;9.986;2023-12-14T08:35:03;5.00;99.90
5588;DHT22;2816;49.778;9.986;2023-12-14T08:37:30;5.10;99.90
5588;DHT22;2816;49.778;9.986;2023-12-14T08:39:57;5.10;99.90
5588;DHT22;2816;49.778;9.986;2023-12-14T08:42:25;5.10;99.90
5588;DHT22;2816;49.778;9.986;2023-12-14T08:44:52;5.10;99.90
5588;DHT22;2816;49.778;9.986;2023-12-14T08:47:19;5.10;99.90
5588;DHT22;2816;49.778;9.986;2023-12-14T08:49:46;5.10;99.90
5588;DHT22;2816;49.778;9.986;2023-12-14T08:52:13;5.10;99.90
5588;DHT22;2816;49.778;9.986;2023-12-14T08:54:40;5.10;99.90
5588;DHT22;2816;49.778;9.986;2023-12-14T08:57:09;5.20;99.90
5588;DHT22;2816;49.778;9.986;2023-12-14T08:59:37;5.20;99.90
5588;DHT22;2816;49.778;9.986;2023-12-14T09:02:04;5.30;99.90
5588;DHT22;2816;49.778;9.986;2023-12-14T09:04:33;5.30;99.90
5588;DHT22;2816;49.778;9.986;2023-12-14T09:07:01;5.30;99.90
5588;DHT22;2816;49.778;9.986;2023-12-14T09:09:29;5.40;99.90
5588;DHT22;2816;49.778;9.986;2023-12-14T09:11:56;5.40;99.90
5588;DHT22;2816;49.778;9.986;2023-12-14T09:14:23;5.40;99.90
5588;DHT22;2816;49.778;9.986;2023-12-14T09:16:52;5.50;99.90
5588;DHT22;2816;49.778;9.986;2023-12-14T09:19:19;5.50;99.90
5588;DHT22;2816;49.778;9.986;2023-12-14T09:21:45;5.50;99.90
5588;DHT22;2816;49.778;9.986;2023-12-14T09:24:12;5.60;99.90
5588;DHT22;2816;49.778;9.986;2023-12-14T09:26:39;5.60;99.90
5588;DHT22;2816;49.778;9.986;2023-12-14T09:29:06;5.70;99.90
5588;DHT22;2816;49.778;9.986;2023-12-14T09:31:33;5.70;99.90
5588;DHT22;2816;49.778;9.986;2023-12-14T09:34:01;5.80;99.90
5588;DHT22;2816;49.778;9.986;2023-12-14T09:36:28;5.80;99.90
5588;DHT22;2816;49.778;9.986;2023-12-14T09:38:55;5.80;99.90
5588;DHT22;2816;49.778;9.986;2023-12-14T09:41:22;6.00;99.90
5588;DHT22;2816;49.778;9.986;2023-12-14T09:43:49;6.00;99.90
5588;DHT22;2816;49.778;9.986;2023-12-14T09:46:17;6.10;99.90
5588;DHT22;2816;49.778;9.986;2023-12-14T09:48:46;6.10;99.90
5588;DHT22;2816;49.778;9.986;2023-12-14T09:51:15;6.00;99.90
5588;DHT22;2816;49.778;9.986;2023-12-14T09:53:42;6.10;99.90
5588;DHT22;2816;49.778;9.986;2023-12-14T09:56:09;6.10;99.90
5588;DHT22;2816;49.778;9.986;2023-12-14T09:58:37;6.10;99.90
5588;DHT22;2816;49.778;9.986;2023-12-14T10:01:21;6.20;99.90
5588;DHT22;2816;49.778;9.986;2023-12-14T10:03:48;6.10;99.90
5588;DHT22;2816;49.778;9.986;2023-12-14T10:06:17;6.10;99.90
5588;DHT22;2816;49.778;9.986;2023-12-14T10:08:54;6.20;99.90
5588;DHT22;2816;49.778;9.986;2023-12-14T10:11:21;6.30;99.90
5588;DHT22;2816;49.778;9.986;2023-12-14T10:13:48;6.30;99.90
5588;DHT22;2816;49.778;9.986;2023-12-14T10:16:27;6.30;99.90
5588;DHT22;2816;49.778;9.986;2023-12-14T10:18:55;6.30;99.90
5588;DHT22;2816;49.778;9.986;2023-12-14T10:21:24;6.30;99.90
5588;DHT22;2816;49.778;9.986;2023-12-14T10:23:51;6.30;99.90
5588;DHT22;2816;49.778;9.986;2023-12-14T10:26:18;6.30;99.90
5588;DHT22;2816;49.778;9.986;2023-12-14T10:28:44;6.30;99.90
5588;DHT22;2816;49.778;9.986;2023-12-14T10:31:12;6.40;99.90
5588;DHT22;2816;49.778;9.986;2023-12-14T10:33:38;6.40;99.90
5588;DHT22;2816;49.778;9.986;2023-12-14T10:36:06;6.40;99.90
5588;DHT22;2816;49.778;9.986;2023-12-14T10:38:37;6.50;99.90
5588;DHT22;2816;49.778;9.986;2023-12-14T10:41:05;6.40;99.90
5588;DHT22;2816;49.778;9.986;2023-12-14T10:43:35;6.50;99.90
5588;DHT22;2816;49.778;9.986;2023-12-14T10:46:05;6.50;99.90
5588;DHT22;2816;49.778;9.986;2023-12-14T10:48:34;6.50;99.90
5588;DHT22;2816;49.778;9.986;2023-12-14T10:51:02;6.50;99.90
5588;DHT22;2816;49.778;9.986;2023-12-14T10:53:31;6.60;99.90
5588;DHT22;2816;49.778;9.986;2023-12-14T10:56:02;6.60;99.90
5588;DHT22;2816;49.778;9.986;2023-12-14T10:58:45;6.50;99.90
5588;DHT22;2816;49.778;9.986;2023-12-14T11:01:14;6.60;99.90
5588;DHT22;2816;49.778;9.986;2023-12-14T11:03:42;6.60;99.90
5588;DHT22;2816;49.778;9.986;2023-12-14T11:06:30;6.60;99.90
5588;DHT22;2816;49.778;9.986;2023-12-14T11:08:59;6.60;99.90
5588;DHT22;2816;49.778;9.986;2023-12-14T11:11:40;6.60;99.90
5588;DHT22;2816;49.778;9.986;2023-12-14T11:14:11;6.60;99.90
5588;DHT22;2816;49.778;9.986;2023-12-14T11:16:38;6.50;99.90
5588;DHT22;2816;49.778;9.986;2023-12-14T11:19:30;6.50;99.90
5588;DHT22;2816;49.778;9.986;2023-12-14T11:22:26;6.60;99.90
5588;DHT22;2816;49.778;9.986;2023-12-14T11:24:54;6.50;99.90
5588;DHT22;2816;49.778;9.986;2023-12-14T11:27:30;6.50;99.90
5588;DHT22;2816;49.778;9.986;2023-12-14T11:29:57;6.50;99.90
5588;DHT22;2816;49.778;9.986;2023-12-14T11:32:26;6.50;99.90
5588;DHT22;2816;49.778;9.986;2023-12-14T11:34:53;6.50;99.90
5588;DHT22;2816;49.778;9.986;2023-12-14T11:37:20;6.50;99.90
5588;DHT22;2816;49.778;9.986;2023-12-14T11:39:50;6.50;99.90
5588;DHT22;2816;49.778;9.986;2023-12-14T11:42:18;6.50;99.90
5588;DHT22;2816;49.778;9.986;2023-12-14T11:44:47;6.50;99.90
5588;DHT22;2816;49.778;9.986;2023-12-14T11:47:14;6.50;99.90
5588;DHT22;2816;49.778;9.986;2023-12-14T11:49:41;6.50;99.90
5588;DHT22;2816;49.778;9.986;2023-12-14T11:52:08;6.50;99.90
5588;DHT22;2816;49.778;9.986;2023-12-14T11:54:35;6.40;99.90
5588;DHT22;2816;49.778;9.986;2023-12-14T11:57:03;6.50;99.90
5588;DHT22;2816;49.778;9.986;2023-12-14T11:59:34;6.50;99.90
5588;DHT22;2816;49.778;9.986;2023-12-14T12:02:03;6.40;99.90
5588;DHT22;2816;49.778;9.986;2023-12-14T12:04:30;6.40;99.90
5588;DHT22;2816;49.778;9.986;2023-12-14T12:07:01;6.50;99.90
5588;DHT22;2816;49.778;9.986;2023-12-14T12:09:33;6.50;99.90
5588;DHT22;2816;49.778;9.986;2023-12-14T12:12:00;6.50;99.90
5588;DHT22;2816;49.778;9.986;2023-12-14T12:14:27;6.50;99.90
5588;DHT22;2816;49.778;9.986;2023-12-14T12:16:54;6.50;99.90
5588;DHT22;2816;49.778;9.986;2023-12-14T12:19:22;6.40;99.90
5588;DHT22;2816;49.778;9.986;2023-12-14T12:21:49;6.40;99.90
5588;DHT22;2816;49.778;9.986;2023-12-14T12:24:16;6.40;99.90
5588;DHT22;2816;49.778;9.986;2023-12-14T12:26:43;6.40;99.90
5588;DHT22;2816;49.778;9.986;2023-12-14T12:29:10;6.40;99.90
5588;DHT22;2816;49.778;9.986;2023-12-14T12:31:37;6.40;99.90
5588;DHT22;2816;49.778;9.986;2023-12-14T12:34:05;6.50;99.90
5588;DHT22;2816;49.778;9.986;2023-12-14T12:36:34;6.50;99.90
5588;DHT22;2816;49.778;9.986;2023-12-14T12:39:01;6.40;99.90
5588;DHT22;2816;49.778;9.986;2023-12-14T12:41:28;6.50;99.90
5588;DHT22;2816;49.778;9.986;2023-12-14T12:43:55;6.40;99.90
5588;DHT22;2816;49.778;9.986;2023-12-14T12:46:23;6.40;99.90
5588;DHT22;2816;49.778;9.986;2023-12-14T12:48:51;6.40;99.90
5588;DHT22;2816;49.778;9.986;2023-12-14T12:51:18;6.40;99.90
5588;DHT22;2816;49.778;9.986;2023-12-14T12:53:46;6.40;99.90
5588;DHT22;2816;49.778;9.986;2023-12-14T12:56:13;6.40;99.90
5588;DHT22;2816;49.778;9.986;2023-12-14T12:58:40;6.40;99.90
5588;DHT22;2816;49.778;9.986;2023-12-14T13:01:07;6.40;99.90
5588;DHT22;2816;49.778;9.986;2023-12-14T13:03:34;6.40;99.90
5588;DHT22;2816;49.778;9.986;2023-12-14T13:06:01;6.40;99.90
5588;DHT22;2816;49.778;9.986;2023-12-14T13:08:28;6.40;99.90
5588;DHT22;2816;49.778;9.986;2023-12-14T13:10:57;6.40;99.90
5588;DHT22;2816;49.778;9.986;2023-12-14T13:13:25;6.30;99.90
5588;DHT22;2816;49.778;9.986;2023-12-14T13:15:52;6.40;99.90
5588;DHT22;2816;49.778;9.986;2023-12-14T13:18:19;6.40;99.90
5588;DHT22;2816;49.778;9.986;2023-12-14T13:20:46;6.30;99.90
5588;DHT22;2816;49.778;9.986;2023-12-14T13:23:13;6.40;99.90
5588;DHT22;2816;49.778;9.986;2023-12-14T13:25:39;6.40;99.90
5588;DHT22;2816;49.778;9.986;2023-12-14T13:28:08;6.40;99.90
5588;DHT22;2816;49.778;9.986;2023-12-14T13:30:35;6.40;99.90
5588;DHT22;2816;49.778;9.986;2023-12-14T13:33:02;6.40;99.90
5588;DHT22;2816;49.778;9.986;2023-12-14T13:35:29;6.40;99.90
5588;DHT22;2816;49.778;9.986;2023-12-14T13:37:56;6.40;99.90
5588;DHT22;2816;49.778;9.986;2023-12-14T13:40:23;6.40;99.90
5588;DHT22;2816;49.778;9.986;2023-12-14T13:42:50;6.30;99.90
5588;DHT22;2816;49.778;9.986;2023-12-14T13:45:18;6.30;99.90
5588;DHT22;2816;49.778;9.986;2023-12-14T13:47:45;6.30;99.90
5588;DHT22;2816;49.778;9.986;2023-12-14T13:50:12;6.30;99.90
5588;DHT22;2816;49.778;9.986;2023-12-14T13:52:39;6.30;99.90
5588;DHT22;2816;49.778;9.986;2023-12-14T13:55:06;6.30;99.90
5588;DHT22;2816;49.778;9.986;2023-12-14T13:57:33;6.30;99.90
5588;DHT22;2816;49.778;9.986;2023-12-14T14:00:00;6.30;99.90
5588;DHT22;2816;49.778;9.986;2023-12-14T14:02:28;6.30;99.90
5588;DHT22;2816;49.778;9.986;2023-12-14T14:04:55;6.30;99.90
5588;DHT22;2816;49.778;9.986;2023-12-14T14:07:22;6.30;99.90
5588;DHT22;2816;49.778;9.986;2023-12-14T14:09:49;6.30;99.90
5588;DHT22;2816;49.778;9.986;2023-12-14T14:12:16;6.30;99.90
5588;DHT22;2816;49.778;9.986;2023-12-14T14:14:42;6.30;99.90
5588;DHT22;2816;49.778;9.986;2023-12-14T14:17:11;6.30;99.90
5588;DHT22;2816;49.778;9.986;2023-12-14T14:19:39;6.30;99.90
5588;DHT22;2816;49.778;9.986;2023-12-14T14:22:06;6.30;99.90
5588;DHT22;2816;49.778;9.986;2023-12-14T14:24:33;6.40;99.90
5588;DHT22;2816;49.778;9.986;2023-12-14T14:27:00;6.30;99.90
5588;DHT22;2816;49.778;9.986;2023-12-14T14:29:27;6.30;99.90
5588;DHT22;2816;49.778;9.986;2023-12-14T14:31:54;6.30;99.90
5588;DHT22;2816;49.778;9.986;2023-12-14T14:34:20;6.30;99.90
5588;DHT22;2816;49.778;9.986;2023-12-14T14:36:50;6.30;99.90
5588;DHT22;2816;49.778;9.986;2023-12-14T14:39:17;6.20;99.90
5588;DHT22;2816;49.778;9.986;2023-12-14T14:41:45;6.30;99.90
5588;DHT22;2816;49.778;9.986;2023-12-14T14:44:11;6.30;99.90
5588;DHT22;2816;49.778;9.986;2023-12-14T14:46:38;6.30;99.90
5588;DHT22;2816;49.778;9.986;2023-12-14T14:49:05;6.30;99.90
5588;DHT22;2816;49.778;9.986;2023-12-14T14:51:32;6.30;99.90
5588;DHT22;2816;49.778;9.986;2023-12-14T14:54:00;6.30;99.90
5588;DHT22;2816;49.778;9.986;2023-12-14T14:56:27;6.30;99.90
5588;DHT22;2816;49.778;9.986;2023-12-14T14:58:54;6.30;99.90
5588;DHT22;2816;49.778;9.986;2023-12-14T15:01:21;6.30;99.90
5588;DHT22;2816;49.778;9.986;2023-12-14T15:03:48;6.30;99.90
5588;DHT22;2816;49.778;9.986;2023-12-14T15:06:15;6.20;99.90
5588;DHT22;2816;49.778;9.986;2023-12-14T15:08:42;6.30;99.90
5588;DHT22;2816;49.778;9.986;2023-12-14T15:11:10;6.30;99.90
5588;DHT22;2816;49.778;9.986;2023-12-14T15:13:37;6.20;99.90
5588;DHT22;2816;49.778;9.986;2023-12-14T15:16:06;6.20;99.90
5588;DHT22;2816;49.778;9.986;2023-12-14T15:18:33;6.10;99.90
5588;DHT22;2816;49.778;9.986;2023-12-14T15:21:06;6.10;99.90
5588;DHT22;2816;49.778;9.986;2023-12-14T15:23:33;6.10;99.90
5588;DHT22;2816;49.778;9.986;2023-12-14T15:26:00;6.10;99.90
5588;DHT22;2816;49.778;9.986;2023-12-14T15:28:29;6.10;99.90
5588;DHT22;2816;49.778;9.986;2023-12-14T15:30:56;6.10;99.90
5588;DHT22;2816;49.778;9.986;2023-12-14T15:33:22;6.10;99.90
5588;DHT22;2816;49.778;9.986;2023-12-14T15:35:51;6.10;99.90
5588;DHT22;2816;49.778;9.986;2023-12-14T15:38:18;6.10;99.90
5588;DHT22;2816;49.778;9.986;2023-12-14T15:40:45;6.10;99.90
5588;DHT22;2816;49.778;9.986;2023-12-14T15:43:12;6.10;99.90
5588;DHT22;2816;49.778;9.986;2023-12-14T15:45:41;6.00;99.90
5588;DHT22;2816;49.778;9.986;2023-12-14T15:48:09;6.00;99.90
5588;DHT22;2816;49.778;9.986;2023-12-14T15:50:36;6.00;99.90
5588;DHT22;2816;49.778;9.986;2023-12-14T15:53:04;6.00;99.90
5588;DHT22;2816;49.778;9.986;2023-12-14T15:55:34;6.00;99.90
5588;DHT22;2816;49.778;9.986;2023-12-14T15:58:01;6.00;99.90
5588;DHT22;2816;49.778;9.986;2023-12-14T16:00:28;6.00;99.90
5588;DHT22;2816;49.778;9.986;2023-12-14T16:02:59;6.00;99.90
5588;DHT22;2816;49.778;9.986;2023-12-14T16:05:26;5.90;99.90
5588;DHT22;2816;49.778;9.986;2023-12-14T16:07:53;5.90;99.90
5588;DHT22;2816;49.778;9.986;2023-12-14T16:10:20;5.90;99.90
5588;DHT22;2816;49.778;9.986;2023-12-14T16:12:47;5.90;99.90
5588;DHT22;2816;49.778;9.986;2023-12-14T16:15:14;5.90;99.90
5588;DHT22;2816;49.778;9.986;2023-12-14T16:17:41;5.90;99.90
5588;DHT22;2816;49.778;9.986;2023-12-14T16:20:10;5.90;99.90